sensor_id;sensor_type;location;lat;lon;timestamp;pressure;altitude;pressure_sealevel;temperature;humidity
35226;BME280;21813;49.686;21.766;2022-09-12T00:10:45;98020.66;;;11.84;100.00
35226;BME280;21813;49.686;21.766;2022-09-12T00:22:54;98015.16;;;11.78;100.00
35226;BME280;21813;49.686;21.766;2022-09-12T00:25:21;98005.56;;;11.78;100.00
35226;BME280;21813;49.686;21.766;2022-09-12T00:28:08;98020.66;;;11.84;100.00
35226;BME280;21813;49.686;21.766;2022-09-12T00:30:58;97993.88;;;11.73;100.00
35226;BME280;21813;49.686;21.766;2022-09-12T00:33:44;97998.97;;;11.74;100.00
35226;BME280;21813;49.686;21.766;2022-09-12T00:37:09;97981.63;;;11.64;100.00
35226;BME280;21813;49.686;21.766;2022-09-12T00:40:04;97973.66;;;11.56;100.00
35226;BME280;21813;49.686;21.766;2022-09-12T00:46:58;98010.75;;;11.69;100.00
35226;BME280;21813;49.686;21.766;2022-09-12T00:53:08;97991.22;;;11.53;100.00
35226;BME280;21813;49.686;21.766;2022-09-12T00:55:54;97994.25;;;11.49;100.00
35226;BME280;21813;49.686;21.766;2022-09-12T01:02:01;97976.94;;;11.29;100.00
35226;BME280;21813;49.686;21.766;2022-09-12T01:04:51;97998.63;;;11.39;100.00
35226;BME280;21813;49.686;21.766;2022-09-12T01:09:58;97975.84;;;11.22;100.00
35226;BME280;21813;49.686;21.766;2022-09-12T01:12:44;97983.94;;;11.19;100.00
35226;BME280;21813;49.686;21.766;2022-09-12T01:15:36;98013.88;;;11.34;100.00
35226;BME280;21813;49.686;21.766;2022-09-12T01:21:35;98008.50;;;11.26;100.00
35226;BME280;21813;49.686;21.766;2022-09-12T01:33:46;98025.25;;;11.14;100.00
35226;BME280;21813;49.686;21.766;2022-09-12T01:52:41;98027.97;;;11.02;100.00
35226;BME280;21813;49.686;21.766;2022-09-12T01:58:28;98020.94;;;10.93;100.00
35226;BME280;21813;49.686;21.766;2022-09-12T02:01:19;98031.81;;;10.98;100.00
35226;BME280;21813;49.686;21.766;2022-09-12T02:07:24;98034.53;;;10.97;100.00
35226;BME280;21813;49.686;21.766;2022-09-12T02:13:21;98021.91;;;10.92;100.00
35226;BME280;21813;49.686;21.766;2022-09-12T02:16:28;98034.69;;;10.95;100.00
35226;BME280;21813;49.686;21.766;2022-09-12T02:28:43;98021.59;;;10.76;100.00
35226;BME280;21813;49.686;21.766;2022-09-12T02:31:52;98038.59;;;10.80;100.00
35226;BME280;21813;49.686;21.766;2022-09-12T02:40:41;98026.19;;;10.63;100.00
35226;BME280;21813;49.686;21.766;2022-09-12T02:43:19;98036.34;;;10.66;100.00
35226;BME280;21813;49.686;21.766;2022-09-12T02:46:49;98023.41;;;10.55;100.00
35226;BME280;21813;49.686;21.766;2022-09-12T02:49:30;98041.84;;;10.63;100.00
35226;BME280;21813;49.686;21.766;2022-09-12T02:56:27;98015.38;;;10.37;100.00
35226;BME280;21813;49.686;21.766;2022-09-12T03:03:26;98044.53;;;10.52;100.00
35226;BME280;21813;49.686;21.766;2022-09-12T03:29:03;98048.50;;;10.26;100.00
35226;BME280;21813;49.686;21.766;2022-09-12T03:32:01;98023.69;;;10.10;100.00
35226;BME280;21813;49.686;21.766;2022-09-12T03:34:35;98041.91;;;10.22;100.00
35226;BME280;21813;49.686;21.766;2022-09-12T03:37:04;98032.47;;;10.09;100.00
35226;BME280;21813;49.686;21.766;2022-09-12T03:39:47;98031.78;;;10.07;100.00
35226;BME280;21813;49.686;21.766;2022-09-12T03:45:14;98041.22;;;10.08;100.00
35226;BME280;21813;49.686;21.766;2022-09-12T03:48:10;98052.22;;;10.12;100.00
35226;BME280;21813;49.686;21.766;2022-09-12T03:50:36;98050.56;;;10.11;100.00
35226;BME280;21813;49.686;21.766;2022-09-12T03:53:10;98040.09;;;10.01;100.00
35226;BME280;21813;49.686;21.766;2022-09-12T03:55:37;98056.41;;;10.03;100.00
35226;BME280;21813;49.686;21.766;2022-09-12T03:58:34;98071.66;;;10.08;100.00
35226;BME280;21813;49.686;21.766;2022-09-12T04:01:09;98042.06;;;9.88;100.00
35226;BME280;21813;49.686;21.766;2022-09-12T04:03:55;98071.06;;;10.04;100.00
35226;BME280;21813;49.686;21.766;2022-09-12T04:06:59;98054.81;;;9.91;100.00
35226;BME280;21813;49.686;21.766;2022-09-12T04:13:22;98047.50;;;9.85;100.00
35226;BME280;21813;49.686;21.766;2022-09-12T04:16:23;98064.72;;;9.97;100.00
35226;BME280;21813;49.686;21.766;2022-09-12T04:19:30;98064.84;;;9.96;100.00
35226;BME280;21813;49.686;21.766;2022-09-12T04:22:12;98059.56;;;9.86;100.00
35226;BME280;21813;49.686;21.766;2022-09-12T04:24:40;98060.00;;;9.91;100.00
35226;BME280;21813;49.686;21.766;2022-09-12T04:27:12;98073.38;;;9.98;100.00
35226;BME280;21813;49.686;21.766;2022-09-12T04:30:17;98086.84;;;10.03;100.00
35226;BME280;21813;49.686;21.766;2022-09-12T04:32:46;98062.16;;;9.86;100.00
35226;BME280;21813;49.686;21.766;2022-09-12T04:35:22;98080.09;;;10.00;100.00
35226;BME280;21813;49.686;21.766;2022-09-12T04:37:52;98061.94;;;9.89;100.00
35226;BME280;21813;49.686;21.766;2022-09-12T04:40:18;98051.53;;;9.89;100.00
35226;BME280;21813;49.686;21.766;2022-09-12T04:42:44;98078.44;;;9.99;100.00
35226;BME280;21813;49.686;21.766;2022-09-12T04:45:42;98096.59;;;10.10;100.00
35226;BME280;21813;49.686;21.766;2022-09-12T04:48:20;98079.59;;;10.06;100.00
35226;BME280;21813;49.686;21.766;2022-09-12T04:51:18;98085.47;;;10.08;100.00
35226;BME280;21813;49.686;21.766;2022-09-12T04:54:15;98085.47;;;10.08;100.00
35226;BME280;21813;49.686;21.766;2022-09-12T04:57:12;98073.22;;;9.99;100.00
35226;BME280;21813;49.686;21.766;2022-09-12T04:59:48;98094.72;;;10.12;100.00
35226;BME280;21813;49.686;21.766;2022-09-12T05:02:16;98102.97;;;10.17;100.00
35226;BME280;21813;49.686;21.766;2022-09-12T05:04:58;98068.84;;;10.00;100.00
35226;BME280;21813;49.686;21.766;2022-09-12T05:07:27;98102.88;;;10.19;100.00
35226;BME280;21813;49.686;21.766;2022-09-12T05:10:10;98096.81;;;10.18;100.00
35226;BME280;21813;49.686;21.766;2022-09-12T05:12:46;98077.94;;;10.05;100.00
35226;BME280;21813;49.686;21.766;2022-09-12T05:15:15;98098.38;;;10.21;100.00
35226;BME280;21813;49.686;21.766;2022-09-12T05:18:10;98085.94;;;10.13;100.00
35226;BME280;21813;49.686;21.766;2022-09-12T05:20:37;98106.25;;;10.31;100.00
35226;BME280;21813;49.686;21.766;2022-09-12T05:23:06;98118.25;;;10.43;100.00
35226;BME280;21813;49.686;21.766;2022-09-12T05:29:02;98086.09;;;10.33;100.00
35226;BME280;21813;49.686;21.766;2022-09-12T05:45:42;98104.22;;;10.85;100.00
35226;BME280;21813;49.686;21.766;2022-09-12T06:04:22;98099.97;;;11.34;100.00
35226;BME280;21813;49.686;21.766;2022-09-12T06:07:00;98090.38;;;11.44;100.00
35226;BME280;21813;49.686;21.766;2022-09-12T06:09:40;98081.09;;;11.51;100.00
35226;BME280;21813;49.686;21.766;2022-09-12T06:12:09;98100.09;;;11.82;100.00
35226;BME280;21813;49.686;21.766;2022-09-12T06:14:49;98088.00;;;12.10;100.00
35226;BME280;21813;49.686;21.766;2022-09-12T06:24:06;98071.19;;;12.78;97.44
35226;BME280;21813;49.686;21.766;2022-09-12T06:27:14;98080.03;;;13.04;95.40
35226;BME280;21813;49.686;21.766;2022-09-12T06:51:54;98124.34;;;13.43;92.60
35226;BME280;21813;49.686;21.766;2022-09-12T06:54:36;98105.63;;;13.83;88.28
35226;BME280;21813;49.686;21.766;2022-09-12T06:57:15;98116.72;;;14.12;85.69
35226;BME280;21813;49.686;21.766;2022-09-12T07:00:06;98109.34;;;14.77;82.23
35226;BME280;21813;49.686;21.766;2022-09-12T07:02:47;98108.63;;;14.92;81.68
35226;BME280;21813;49.686;21.766;2022-09-12T07:05:22;98116.63;;;14.83;83.20
35226;BME280;21813;49.686;21.766;2022-09-12T07:07:48;98130.03;;;14.80;82.84
35226;BME280;21813;49.686;21.766;2022-09-12T07:10:14;98120.97;;;14.48;83.78
35226;BME280;21813;49.686;21.766;2022-09-12T07:12:45;98121.69;;;14.58;82.90
35226;BME280;21813;49.686;21.766;2022-09-12T07:15:12;98130.56;;;14.83;82.50
35226;BME280;21813;49.686;21.766;2022-09-12T07:17:40;98119.63;;;14.96;80.14
35226;BME280;21813;49.686;21.766;2022-09-12T07:20:12;98145.16;;;14.86;80.04
35226;BME280;21813;49.686;21.766;2022-09-12T07:22:37;98117.53;;;15.41;78.03
35226;BME280;21813;49.686;21.766;2022-09-12T07:25:04;98115.38;;;15.87;75.89
35226;BME280;21813;49.686;21.766;2022-09-12T07:27:37;98116.50;;;15.68;74.87
35226;BME280;21813;49.686;21.766;2022-09-12T07:30:04;98138.44;;;15.17;76.90
35226;BME280;21813;49.686;21.766;2022-09-12T07:33:25;98122.63;;;14.49;79.63
35226;BME280;21813;49.686;21.766;2022-09-12T07:36:14;98127.34;;;14.10;81.48
35226;BME280;21813;49.686;21.766;2022-09-12T07:38:42;98137.22;;;14.34;81.19
35226;BME280;21813;49.686;21.766;2022-09-12T07:41:12;98128.91;;;14.56;81.16
35226;BME280;21813;49.686;21.766;2022-09-12T07:43:38;98127.25;;;15.07;79.19
35226;BME280;21813;49.686;21.766;2022-09-12T07:46:16;98125.59;;;15.06;78.91
35226;BME280;21813;49.686;21.766;2022-09-12T07:48:42;98144.13;;;15.38;77.39
35226;BME280;21813;49.686;21.766;2022-09-12T07:51:13;98134.06;;;17.21;71.51
35226;BME280;21813;49.686;21.766;2022-09-12T07:53:46;98131.84;;;20.10;61.00
35226;BME280;21813;49.686;21.766;2022-09-12T07:56:14;98122.63;;;21.73;55.02
35226;BME280;21813;49.686;21.766;2022-09-12T07:58:49;98114.31;;;21.07;56.18
35226;BME280;21813;49.686;21.766;2022-09-12T08:01:41;98124.75;;;20.81;55.65
35226;BME280;21813;49.686;21.766;2022-09-12T08:04:13;98117.00;;;22.02;52.57
35226;BME280;21813;49.686;21.766;2022-09-12T08:06:46;98135.00;;;22.13;51.88
35226;BME280;21813;49.686;21.766;2022-09-12T08:09:21;98115.06;;;20.94;54.13
35226;BME280;21813;49.686;21.766;2022-09-12T08:12:14;98114.31;;;19.88;56.67
35226;BME280;21813;49.686;21.766;2022-09-12T08:15:11;98113.03;;;18.51;61.47
35226;BME280;21813;49.686;21.766;2022-09-12T08:17:44;98141.19;;;17.52;64.33
35226;BME280;21813;49.686;21.766;2022-09-12T08:20:13;98147.19;;;16.66;67.07
35226;BME280;21813;49.686;21.766;2022-09-12T08:22:43;98139.06;;;15.95;70.85
35226;BME280;21813;49.686;21.766;2022-09-12T08:25:35;98129.69;;;15.42;73.25
35226;BME280;21813;49.686;21.766;2022-09-12T08:39:38;98111.16;;;14.33;74.75
35226;BME280;21813;49.686;21.766;2022-09-12T08:42:43;98158.81;;;14.46;75.99
35226;BME280;21813;49.686;21.766;2022-09-12T08:48:12;98141.38;;;14.19;76.49
35226;BME280;21813;49.686;21.766;2022-09-12T08:50:39;98122.47;;;13.98;76.46
35226;BME280;21813;49.686;21.766;2022-09-12T09:51:58;98172.66;;;14.03;79.26
35226;BME280;21813;49.686;21.766;2022-09-12T10:07:25;98158.06;;;14.36;75.75
35226;BME280;21813;49.686;21.766;2022-09-12T10:10:18;98171.75;;;14.47;75.86
35226;BME280;21813;49.686;21.766;2022-09-12T10:12:44;98138.28;;;14.41;76.46
35226;BME280;21813;49.686;21.766;2022-09-12T10:15:22;98157.50;;;14.68;75.81
35226;BME280;21813;49.686;21.766;2022-09-12T10:17:51;98156.63;;;14.85;73.37
35226;BME280;21813;49.686;21.766;2022-09-12T10:22:58;98156.81;;;14.83;71.05
35226;BME280;21813;49.686;21.766;2022-09-12T10:25:27;98152.06;;;14.87;71.77
35226;BME280;21813;49.686;21.766;2022-09-12T10:31:26;98180.03;;;15.04;70.30
35226;BME280;21813;49.686;21.766;2022-09-12T10:33:58;98161.59;;;14.88;70.65
35226;BME280;21813;49.686;21.766;2022-09-12T10:36:35;98162.88;;;14.84;71.89
35226;BME280;21813;49.686;21.766;2022-09-12T10:39:17;98189.31;;;14.90;70.03
35226;BME280;21813;49.686;21.766;2022-09-12T10:41:45;98188.13;;;14.85;71.56
35226;BME280;21813;49.686;21.766;2022-09-12T10:44:17;98184.16;;;14.81;72.19
35226;BME280;21813;49.686;21.766;2022-09-12T10:46:51;98163.72;;;14.67;72.03
35226;BME280;21813;49.686;21.766;2022-09-12T10:49:30;98177.88;;;14.74;71.52
35226;BME280;21813;49.686;21.766;2022-09-12T10:52:15;98172.91;;;14.71;71.47
35226;BME280;21813;49.686;21.766;2022-09-12T10:54:41;98189.22;;;14.74;72.37
35226;BME280;21813;49.686;21.766;2022-09-12T11:00:17;98190.94;;;14.66;72.06
35226;BME280;21813;49.686;21.766;2022-09-12T11:05:52;98196.09;;;14.57;72.58
35226;BME280;21813;49.686;21.766;2022-09-12T11:14:27;98205.72;;;14.49;72.06
35226;BME280;21813;49.686;21.766;2022-09-12T11:20:29;98211.47;;;14.52;72.82
35226;BME280;21813;49.686;21.766;2022-09-12T11:26:49;98199.63;;;14.48;74.60
35226;BME280;21813;49.686;21.766;2022-09-12T11:32:12;98205.03;;;14.65;77.47
35226;BME280;21813;49.686;21.766;2022-09-12T11:43:48;98218.69;;;14.50;79.00
35226;BME280;21813;49.686;21.766;2022-09-12T11:46:41;98193.47;;;14.22;79.66
35226;BME280;21813;49.686;21.766;2022-09-12T11:54:45;98224.34;;;14.28;78.97
35226;BME280;21813;49.686;21.766;2022-09-12T12:02:30;98230.19;;;14.22;75.86
35226;BME280;21813;49.686;21.766;2022-09-12T12:05:17;98229.88;;;14.25;75.62
35226;BME280;21813;49.686;21.766;2022-09-12T12:07:59;98236.38;;;14.21;73.99
35226;BME280;21813;49.686;21.766;2022-09-12T12:13:39;98239.31;;;14.18;74.95
35226;BME280;21813;49.686;21.766;2022-09-12T12:16:14;98246.50;;;14.16;75.27
35226;BME280;21813;49.686;21.766;2022-09-12T12:18:53;98239.91;;;14.12;75.39
35226;BME280;21813;49.686;21.766;2022-09-12T12:24:19;98239.38;;;14.08;76.14
35226;BME280;21813;49.686;21.766;2022-09-12T12:34:27;98250.06;;;14.15;76.71
35226;BME280;21813;49.686;21.766;2022-09-12T12:39:59;98247.69;;;14.04;76.58
35226;BME280;21813;49.686;21.766;2022-09-12T12:47:58;98222.94;;;13.89;77.44
35226;BME280;21813;49.686;21.766;2022-09-12T12:50:29;98241.34;;;13.97;77.97
35226;BME280;21813;49.686;21.766;2022-09-12T12:53:04;98236.56;;;13.92;77.83
35226;BME280;21813;49.686;21.766;2022-09-12T12:55:36;98235.75;;;13.92;77.69
35226;BME280;21813;49.686;21.766;2022-09-12T12:58:21;98238.66;;;13.89;77.36
35226;BME280;21813;49.686;21.766;2022-09-12T13:01:17;98235.75;;;13.92;77.09
35226;BME280;21813;49.686;21.766;2022-09-12T13:04:10;98228.47;;;13.86;77.61
35226;BME280;21813;49.686;21.766;2022-09-12T13:07:27;98252.41;;;14.00;77.48
35226;BME280;21813;49.686;21.766;2022-09-12T13:09:44;98243.31;;;13.95;77.64
35226;BME280;21813;49.686;21.766;2022-09-12T13:12:20;98258.47;;;14.01;78.46
35226;BME280;21813;49.686;21.766;2022-09-12T13:14:58;98249.22;;;13.97;78.40
35226;BME280;21813;49.686;21.766;2022-09-12T13:31:40;98267.81;;;14.03;79.91
35226;BME280;21813;49.686;21.766;2022-09-12T14:01:42;98260.81;;;13.67;86.78
35226;BME280;21813;49.686;21.766;2022-09-12T14:04:24;98270.47;;;13.66;87.04
35226;BME280;21813;49.686;21.766;2022-09-12T14:07:22;98272.41;;;13.64;86.98
35226;BME280;21813;49.686;21.766;2022-09-12T14:10:05;98272.41;;;13.64;87.71
35226;BME280;21813;49.686;21.766;2022-09-12T14:12:37;98262.53;;;13.58;87.94
35226;BME280;21813;49.686;21.766;2022-09-12T14:15:25;98248.94;;;13.45;88.29
35226;BME280;21813;49.686;21.766;2022-09-12T14:20:38;98269.53;;;13.58;88.19
35226;BME280;21813;49.686;21.766;2022-09-12T14:23:34;98280.69;;;13.60;88.65
35226;BME280;21813;49.686;21.766;2022-09-12T14:26:14;98266.41;;;13.54;88.60
35226;BME280;21813;49.686;21.766;2022-09-12T14:28:45;98250.56;;;13.46;88.91
35226;BME280;21813;49.686;21.766;2022-09-12T14:43:40;98249.91;;;13.44;89.82
35226;BME280;21813;49.686;21.766;2022-09-12T14:49:55;98251.25;;;13.48;90.82
35226;BME280;21813;49.686;21.766;2022-09-12T14:53:04;98276.03;;;13.54;91.34
35226;BME280;21813;49.686;21.766;2022-09-12T14:58:45;98276.63;;;13.38;92.08
35226;BME280;21813;49.686;21.766;2022-09-12T15:02:24;98278.59;;;13.36;93.16
35226;BME280;21813;49.686;21.766;2022-09-12T15:08:32;98259.06;;;13.11;94.87
35226;BME280;21813;49.686;21.766;2022-09-12T15:11:09;98281.91;;;13.19;94.84
35226;BME280;21813;49.686;21.766;2022-09-12T15:14:14;98282.88;;;13.18;95.18
35226;BME280;21813;49.686;21.766;2022-09-12T15:25:54;98260.00;;;13.01;95.85
35226;BME280;21813;49.686;21.766;2022-09-12T15:53:36;98259.47;;;12.88;98.58
35226;BME280;21813;49.686;21.766;2022-09-12T15:56:36;98285.22;;;13.02;99.38
35226;BME280;21813;49.686;21.766;2022-09-12T15:59:32;98278.50;;;12.90;100.00
35226;BME280;21813;49.686;21.766;2022-09-12T16:08:21;98259.91;;;12.64;100.00
35226;BME280;21813;49.686;21.766;2022-09-12T16:15:00;98284.41;;;12.63;100.00
35226;BME280;21813;49.686;21.766;2022-09-12T16:28:01;98281.09;;;12.51;100.00
35226;BME280;21813;49.686;21.766;2022-09-12T17:17:25;98312.50;;;12.61;100.00
35226;BME280;21813;49.686;21.766;2022-09-12T17:52:44;98306.13;;;12.44;100.00
35226;BME280;21813;49.686;21.766;2022-09-12T18:02:17;98294.16;;;12.32;100.00
35226;BME280;21813;49.686;21.766;2022-09-12T18:04:55;98313.00;;;12.35;100.00
35226;BME280;21813;49.686;21.766;2022-09-12T18:11:39;98325.09;;;12.36;100.00
35226;BME280;21813;49.686;21.766;2022-09-12T18:14:08;98324.97;;;12.38;100.00
35226;BME280;21813;49.686;21.766;2022-09-12T18:16:38;98331.47;;;12.44;100.00
35226;BME280;21813;49.686;21.766;2022-09-12T18:19:43;98307.75;;;12.26;100.00
35226;BME280;21813;49.686;21.766;2022-09-12T18:22:27;98319.31;;;12.33;100.00
35226;BME280;21813;49.686;21.766;2022-09-12T18:25:16;98329.34;;;12.28;100.00
35226;BME280;21813;49.686;21.766;2022-09-12T18:30:40;98337.19;;;12.28;100.00
35226;BME280;21813;49.686;21.766;2022-09-12T18:33:09;98323.41;;;12.26;100.00
35226;BME280;21813;49.686;21.766;2022-09-12T18:35:38;98335.28;;;12.30;100.00
35226;BME280;21813;49.686;21.766;2022-09-12T18:38:04;98325.34;;;12.24;100.00
35226;BME280;21813;49.686;21.766;2022-09-12T18:40:38;98321.50;;;12.28;100.00
35226;BME280;21813;49.686;21.766;2022-09-12T18:43:28;98334.47;;;12.29;100.00
35226;BME280;21813;49.686;21.766;2022-09-12T18:46:14;98322.88;;;12.22;100.00
35226;BME280;21813;49.686;21.766;2022-09-12T18:48:51;98337.63;;;12.33;100.00
35226;BME280;21813;49.686;21.766;2022-09-12T18:51:24;98330.31;;;12.27;100.00
35226;BME280;21813;49.686;21.766;2022-09-12T18:53:54;98322.31;;;12.19;100.00
35226;BME280;21813;49.686;21.766;2022-09-12T18:56:32;98329.19;;;12.20;100.00
35226;BME280;21813;49.686;21.766;2022-09-12T18:59:14;98333.63;;;12.29;100.00
35226;BME280;21813;49.686;21.766;2022-09-12T19:01:43;98328.09;;;12.22;100.00
35226;BME280;21813;49.686;21.766;2022-09-12T19:04:11;98305.50;;;12.12;100.00
35226;BME280;21813;49.686;21.766;2022-09-12T19:06:45;98313.53;;;12.20;100.00
35226;BME280;21813;49.686;21.766;2022-09-12T19:09:19;98322.88;;;12.22;100.00
35226;BME280;21813;49.686;21.766;2022-09-12T19:11:48;98312.00;;;12.17;100.00
35226;BME280;21813;49.686;21.766;2022-09-12T19:14:31;98300.00;;;12.05;100.00
35226;BME280;21813;49.686;21.766;2022-09-12T19:17:21;98325.59;;;12.21;100.00
35226;BME280;21813;49.686;21.766;2022-09-12T19:19:51;98331.94;;;12.18;100.00
35226;BME280;21813;49.686;21.766;2022-09-12T19:22:17;98338.28;;;12.16;100.00
35226;BME280;21813;49.686;21.766;2022-09-12T19:24:42;98331.91;;;12.09;100.00
35226;BME280;21813;49.686;21.766;2022-09-12T19:27:34;98331.91;;;12.09;100.00
35226;BME280;21813;49.686;21.766;2022-09-12T19:30:23;98333.69;;;12.08;100.00
35226;BME280;21813;49.686;21.766;2022-09-12T19:33:19;98339.31;;;12.04;100.00
35226;BME280;21813;49.686;21.766;2022-09-12T19:36:13;98324.19;;;11.98;100.00
35226;BME280;21813;49.686;21.766;2022-09-12T19:38:40;98323.31;;;11.87;100.00
35226;BME280;21813;49.686;21.766;2022-09-12T19:41:31;98293.53;;;11.69;100.00
35226;BME280;21813;49.686;21.766;2022-09-12T19:44:26;98306.34;;;11.72;100.00
35226;BME280;21813;49.686;21.766;2022-09-12T19:47:12;98309.72;;;11.63;100.00
35226;BME280;21813;49.686;21.766;2022-09-12T19:49:41;98302.72;;;11.64;100.00
35226;BME280;21813;49.686;21.766;2022-09-12T19:52:34;98307.81;;;11.65;100.00
35226;BME280;21813;49.686;21.766;2022-09-12T19:55:19;98289.34;;;11.57;100.00
35226;BME280;21813;49.686;21.766;2022-09-12T19:57:56;98278.72;;;11.49;100.00
35226;BME280;21813;49.686;21.766;2022-09-12T20:03:38;98278.28;;;11.44;100.00
35226;BME280;21813;49.686;21.766;2022-09-12T20:06:12;98305.00;;;11.57;100.00
35226;BME280;21813;49.686;21.766;2022-09-12T20:08:54;98275.25;;;11.39;100.00
35226;BME280;21813;49.686;21.766;2022-09-12T20:11:21;98294.50;;;11.47;100.00
35226;BME280;21813;49.686;21.766;2022-09-12T20:13:58;98289.69;;;11.43;100.00
35226;BME280;21813;49.686;21.766;2022-09-12T20:16:47;98307.72;;;11.46;100.00
35226;BME280;21813;49.686;21.766;2022-09-12T20:19:13;98298.59;;;11.40;100.00
35226;BME280;21813;49.686;21.766;2022-09-12T20:21:42;98283.28;;;11.26;100.00
35226;BME280;21813;49.686;21.766;2022-09-12T20:24:20;98285.78;;;11.28;100.00
35226;BME280;21813;49.686;21.766;2022-09-12T20:26:46;98278.94;;;11.16;100.00
35226;BME280;21813;49.686;21.766;2022-09-12T20:29:15;98288.06;;;11.21;100.00
35226;BME280;21813;49.686;21.766;2022-09-12T20:31:53;98262.41;;;11.05;100.00
35226;BME280;21813;49.686;21.766;2022-09-12T20:34:35;98282.31;;;11.06;100.00
35226;BME280;21813;49.686;21.766;2022-09-12T20:37:07;98304.81;;;11.19;100.00
35226;BME280;21813;49.686;21.766;2022-09-12T20:39:33;98304.66;;;11.20;100.00
35226;BME280;21813;49.686;21.766;2022-09-12T20:41:59;98293.31;;;11.10;100.00
35226;BME280;21813;49.686;21.766;2022-09-12T20:44:29;98298.44;;;11.12;100.00
35226;BME280;21813;49.686;21.766;2022-09-12T20:46:55;98288.25;;;11.08;100.00
35226;BME280;21813;49.686;21.766;2022-09-12T20:49:35;98300.91;;;11.13;100.00
35226;BME280;21813;49.686;21.766;2022-09-12T20:52:04;98297.38;;;11.14;100.00
35226;BME280;21813;49.686;21.766;2022-09-12T20:54:37;98300.66;;;11.16;100.00
35226;BME280;21813;49.686;21.766;2022-09-12T20:57:03;98284.69;;;11.10;100.00
35226;BME280;21813;49.686;21.766;2022-09-12T20:59:29;98275.44;;;11.05;100.00
35226;BME280;21813;49.686;21.766;2022-09-12T21:02:16;98309.63;;;11.23;100.00
35226;BME280;21813;49.686;21.766;2022-09-12T21:04:45;98293.78;;;11.15;100.00
35226;BME280;21813;49.686;21.766;2022-09-12T21:07:19;98285.38;;;11.12;100.00
35226;BME280;21813;49.686;21.766;2022-09-12T21:09:51;98300.00;;;11.24;100.00
35226;BME280;21813;49.686;21.766;2022-09-12T21:12:32;98283.94;;;11.19;100.00
35226;BME280;21813;49.686;21.766;2022-09-12T21:15:00;98268.34;;;11.07;100.00
35226;BME280;21813;49.686;21.766;2022-09-12T21:17:34;98271.91;;;11.06;100.00
35226;BME280;21813;49.686;21.766;2022-09-12T21:20:06;98281.38;;;11.07;100.00
35226;BME280;21813;49.686;21.766;2022-09-12T21:22:41;98294.09;;;11.22;100.00
35226;BME280;21813;49.686;21.766;2022-09-12T21:25:07;98290.47;;;11.13;100.00
35226;BME280;21813;49.686;21.766;2022-09-12T21:27:43;98305.59;;;11.19;100.00
35226;BME280;21813;49.686;21.766;2022-09-12T21:30:09;98315.91;;;11.21;100.00
35226;BME280;21813;49.686;21.766;2022-09-12T21:32:43;98303.16;;;11.18;100.00
35226;BME280;21813;49.686;21.766;2022-09-12T21:35:18;98295.56;;;11.15;100.00
35226;BME280;21813;49.686;21.766;2022-09-12T21:37:58;98285.66;;;11.08;100.00
35226;BME280;21813;49.686;21.766;2022-09-12T21:40:32;98306.19;;;11.23;100.00
35226;BME280;21813;49.686;21.766;2022-09-12T21:43:15;98292.00;;;11.16;100.00
35226;BME280;21813;49.686;21.766;2022-09-12T21:46:06;98294.16;;;11.11;100.00
35226;BME280;21813;49.686;21.766;2022-09-12T21:48:55;98286.34;;;11.11;100.00
35226;BME280;21813;49.686;21.766;2022-09-12T21:51:25;98291.31;;;11.14;100.00
35226;BME280;21813;49.686;21.766;2022-09-12T21:54:17;98280.56;;;11.07;100.00
35226;BME280;21813;49.686;21.766;2022-09-12T21:57:00;98281.25;;;11.09;100.00
35226;BME280;21813;49.686;21.766;2022-09-12T21:59:25;98285.50;;;11.10;100.00
35226;BME280;21813;49.686;21.766;2022-09-12T22:01:52;98284.69;;;11.10;100.00
35226;BME280;21813;49.686;21.766;2022-09-12T22:04:35;98266.22;;;11.01;100.00
35226;BME280;21813;49.686;21.766;2022-09-12T22:07:09;98270.13;;;11.07;100.00
35226;BME280;21813;49.686;21.766;2022-09-12T22:09:38;98275.34;;;11.07;100.00
35226;BME280;21813;49.686;21.766;2022-09-12T22:12:04;98266.00;;;11.04;100.00
35226;BME280;21813;49.686;21.766;2022-09-12T22:14:30;98261.28;;;10.98;100.00
35226;BME280;21813;49.686;21.766;2022-09-12T22:17:17;98273.09;;;11.02;100.00
35226;BME280;21813;49.686;21.766;2022-09-12T22:20:10;98270.16;;;10.96;100.00
35226;BME280;21813;49.686;21.766;2022-09-12T22:22:42;98281.38;;;11.07;100.00
35226;BME280;21813;49.686;21.766;2022-09-12T22:25:58;98267.06;;;11.02;100.00
35226;BME280;21813;49.686;21.766;2022-09-12T22:28:37;98269.81;;;11.00;100.00
35226;BME280;21813;49.686;21.766;2022-09-12T22:31:03;98270.50;;;11.02;100.00
35226;BME280;21813;49.686;21.766;2022-09-12T22:34:00;98267.63;;;11.05;100.00
35226;BME280;21813;49.686;21.766;2022-09-12T22:36:32;98270.50;;;11.02;100.00
35226;BME280;21813;49.686;21.766;2022-09-12T22:39:11;98271.72;;;10.98;100.00
35226;BME280;21813;49.686;21.766;2022-09-12T22:41:37;98246.66;;;10.86;100.00
35226;BME280;21813;49.686;21.766;2022-09-12T22:44:15;98282.16;;;10.98;100.00
35226;BME280;21813;49.686;21.766;2022-09-12T22:46:42;98257.59;;;10.80;100.00
35226;BME280;21813;49.686;21.766;2022-09-12T22:49:12;98275.66;;;10.93;100.00
35226;BME280;21813;49.686;21.766;2022-09-12T22:51:38;98268.47;;;10.85;100.00
35226;BME280;21813;49.686;21.766;2022-09-12T22:54:08;98277.94;;;10.86;100.00
35226;BME280;21813;49.686;21.766;2022-09-12T22:56:46;98287.63;;;10.95;100.00
35226;BME280;21813;49.686;21.766;2022-09-12T22:59:23;98271.66;;;10.89;100.00
35226;BME280;21813;49.686;21.766;2022-09-12T23:01:48;98249.88;;;10.79;100.00
35226;BME280;21813;49.686;21.766;2022-09-12T23:04:22;98265.59;;;10.88;100.00